createdAt,value
2019-01-23T00:00:46.358Z,99074.66
2019-01-23T00:05:48.374Z,99067.14
2019-01-23T00:10:50.811Z,99057.59
2019-01-23T00:15:52.860Z,99048.94
2019-01-23T00:20:54.933Z,99044.56
2019-01-23T00:25:56.916Z,99046.63
2019-01-23T00:30:58.892Z,99044.11
2019-01-23T00:36:00.943Z,99034.45
2019-01-23T00:41:03.059Z,99030.53
2019-01-23T00:46:05.447Z,99021.41
2019-01-23T00:51:07.774Z,99018.40
2019-01-23T00:56:09.816Z,99015.79
2019-01-23T01:01:12.004Z,99008.81
2019-01-23T01:06:14.047Z,99010.23
2019-01-23T01:11:16.079Z,98998.39
2019-01-23T01:16:18.074Z,98992.67
2019-01-23T01:21:20.124Z,98993.67
2019-01-23T01:26:22.275Z,98981.85
2019-01-23T01:31:24.290Z,98980.44
2019-01-23T01:36:26.713Z,98969.49
2019-01-23T01:41:28.742Z,98968.25
2019-01-23T01:46:30.794Z,98972.89
2019-01-23T01:51:32.873Z,98964.52
2019-01-23T01:56:34.939Z,98967.17
2019-01-23T02:01:36.975Z,98958.45
2019-01-23T02:06:39.023Z,98949.31
2019-01-23T02:11:41.345Z,98947.15
2019-01-23T02:16:43.403Z,98935.36
2019-01-23T02:21:45.479Z,98937.92
2019-01-23T02:26:47.487Z,98929.93
2019-01-23T02:31:49.490Z,98927.37
2019-01-23T02:36:51.508Z,98920.95
2019-01-23T02:41:53.507Z,98908.27
2019-01-23T02:46:55.490Z,98905.61
2019-01-23T02:51:57.622Z,98894.77
2019-01-23T02:56:59.764Z,98886.55
2019-01-23T03:02:01.784Z,98877.77
2019-01-23T03:07:03.855Z,98879.95
2019-01-23T03:12:05.844Z,98877.02
2019-01-23T03:17:08.172Z,98869.02
2019-01-23T03:22:10.255Z,98870.39
2019-01-23T03:27:12.278Z,98865.11
2019-01-23T03:32:14.438Z,98856.95
2019-01-23T03:37:16.732Z,98849.53
2019-01-23T03:42:18.833Z,98812.37
2019-01-23T03:47:21.169Z,98846.45
2019-01-23T03:52:23.235Z,98842.61
2019-01-23T03:57:25.344Z,98845.22
2019-01-23T04:02:27.400Z,98843.06
2019-01-23T04:07:29.375Z,98843.02
2019-01-23T04:12:31.678Z,98831.86
2019-01-23T04:17:33.779Z,98826.11
2019-01-23T04:22:35.846Z,98824.88
2019-01-23T04:27:37.907Z,98826.49
2019-01-23T04:32:39.927Z,98824.73
2019-01-23T04:37:42.853Z,98816.64
2019-01-23T04:42:46.315Z,98815.55
2019-01-23T04:47:48.662Z,98810.14
2019-01-23T04:53:10.359Z,98807.53
2019-01-23T04:58:12.876Z,98805.43
2019-01-23T05:03:14.895Z,98800.94
2019-01-23T05:08:16.957Z,98799.96
2019-01-23T05:13:19.053Z,98795.72
2019-01-23T05:18:21.086Z,98794.82
2019-01-23T05:23:23.318Z,98791.22
2019-01-23T05:28:25.401Z,98784.97
2019-01-23T05:33:27.434Z,98778.38
2019-01-23T05:38:29.459Z,98785.42
2019-01-23T05:43:31.434Z,98780.68
2019-01-23T05:48:33.936Z,98769.83
2019-01-23T05:53:35.926Z,98765.92
2019-01-23T05:58:37.977Z,98769.91
2019-01-23T06:03:41.574Z,98767.80
2019-01-23T06:08:43.567Z,98759.48
2019-01-23T06:13:45.582Z,98756.59
2019-01-23T06:18:47.745Z,98766.70
2019-01-23T06:23:50.218Z,98762.14
2019-01-23T06:28:52.228Z,98761.28
2019-01-23T06:33:54.575Z,98762.73
2019-01-23T06:38:58.658Z,98763.59
2019-01-23T06:44:00.694Z,98767.50
2019-01-23T06:49:02.745Z,98766.06
2019-01-23T06:54:04.776Z,98766.25
2019-01-23T06:59:06.809Z,98750.61
2019-01-23T07:04:08.776Z,98752.31
2019-01-23T07:09:10.814Z,98754.47
2019-01-23T07:14:13.078Z,98758.53
2019-01-23T07:19:15.124Z,98750.16
2019-01-23T07:24:17.119Z,98752.89
2019-01-23T07:29:19.136Z,98753.32
2019-01-23T07:34:21.206Z,98754.97
2019-01-23T07:39:23.267Z,98754.97
2019-01-23T07:44:25.315Z,98752.02
2019-01-23T07:49:27.379Z,98745.45
2019-01-23T07:54:29.455Z,98744.33
2019-01-23T07:59:31.448Z,98746.35
2019-01-23T08:04:33.436Z,98739.45
2019-01-23T08:09:35.513Z,98741.86
2019-01-23T08:14:37.875Z,98737.77
2019-01-23T08:19:39.933Z,98733.08
2019-01-23T08:24:41.937Z,98730.88
2019-01-23T08:29:44.081Z,98735.30
2019-01-23T08:34:46.070Z,98737.58
2019-01-23T08:40:07.679Z,98738.11
2019-01-23T08:45:10.571Z,98750.03
2019-01-23T08:50:24.746Z,98743.25
2019-01-23T08:55:26.795Z,98738.38
2019-01-23T09:00:29.179Z,98736.48
2019-01-23T09:05:31.438Z,98737.17
2019-01-23T09:10:33.543Z,98737.84
2019-01-23T09:15:35.535Z,98744.09
2019-01-23T09:20:37.660Z,98737.38
2019-01-23T09:25:39.718Z,98741.52
2019-01-23T09:31:20.630Z,98747.53
2019-01-23T09:36:57.002Z,98752.57
2019-01-23T09:42:37.949Z,98751.53
2019-01-23T09:47:45.981Z,98747.27
2019-01-23T09:53:26.884Z,98751.95
2019-01-23T09:58:28.877Z,98752.23
2019-01-23T10:03:50.325Z,98750.52
2019-01-23T10:08:52.664Z,98754.25
2019-01-23T10:13:54.746Z,98755.53
2019-01-23T10:18:56.831Z,98754.97
2019-01-23T10:23:58.918Z,98757.69
2019-01-23T10:29:00.957Z,98755.14
2019-01-23T10:34:24.328Z,98755.93
2019-01-23T10:39:26.320Z,98752.21
2019-01-23T10:44:28.366Z,98748.50
2019-01-23T10:49:30.401Z,98745.03
2019-01-23T10:54:32.745Z,98751.42
2019-01-23T10:59:34.774Z,98734.97
2019-01-23T11:04:36.825Z,98735.81
2019-01-23T11:09:38.893Z,98737.17
2019-01-23T11:14:43.218Z,98735.81
2019-01-23T11:19:45.253Z,98732.78
2019-01-23T11:24:47.327Z,98741.01
2019-01-23T11:29:49.370Z,98744.47
2019-01-23T11:34:51.362Z,98736.04
2019-01-23T11:39:53.379Z,98730.17
2019-01-23T11:44:55.377Z,98729.64
2019-01-23T11:49:57.368Z,98727.50
2019-01-23T11:54:59.625Z,98730.28
2019-01-23T12:00:02.112Z,98729.52
2019-01-23T12:05:05.425Z,98737.03
2019-01-23T12:10:10.535Z,98741.46
2019-01-23T12:15:14.504Z,98736.37
2019-01-23T12:20:17.058Z,98741.46
2019-01-23T12:25:19.111Z,98733.12
2019-01-23T12:30:24.009Z,98734.28
2019-01-23T12:35:26.013Z,98740.36
2019-01-23T12:40:28.044Z,98743.70
2019-01-23T12:45:30.272Z,98740.23
2019-01-23T12:50:32.322Z,98740.09
2019-01-23T12:55:34.366Z,98739.64
2019-01-23T13:00:36.648Z,98741.20
2019-01-23T13:05:38.990Z,98743.11
2019-01-23T13:10:41.062Z,98737.03
2019-01-23T13:15:43.126Z,98740.47
2019-01-23T13:20:45.176Z,98745.45
2019-01-23T13:25:47.275Z,98740.09
2019-01-23T13:30:49.371Z,98751.30
2019-01-23T13:35:51.403Z,98742.77
2019-01-23T13:40:53.447Z,98747.08
2019-01-23T13:45:55.452Z,98744.20
2019-01-23T13:50:57.511Z,98744.84
2019-01-23T13:55:59.530Z,98748.44
2019-01-23T14:01:01.581Z,98748.32
2019-01-23T14:06:03.706Z,98745.00
2019-01-23T14:11:05.757Z,98746.05
2019-01-23T14:16:07.858Z,98754.11
2019-01-23T14:21:09.943Z,98767.18
2019-01-23T14:26:12.014Z,98758.50
2019-01-23T14:31:14.085Z,98759.41
2019-01-23T14:36:16.137Z,98758.77
2019-01-23T14:41:18.282Z,98766.77
2019-01-23T14:46:20.286Z,98775.78
2019-01-23T14:51:29.721Z,98773.03
2019-01-23T14:56:31.710Z,98778.50
2019-01-23T15:01:33.720Z,98785.88
2019-01-23T15:06:35.713Z,98792.29
2019-01-23T15:11:37.690Z,98797.11
2019-01-23T15:16:39.698Z,98808.66
2019-01-23T15:21:41.709Z,98805.31
2019-01-23T15:26:43.813Z,98813.43
2019-01-23T15:31:45.838Z,98816.61
2019-01-23T15:36:47.873Z,98821.95
2019-01-23T15:41:49.927Z,98826.34
2019-01-23T15:46:51.965Z,98833.89
2019-01-23T15:51:53.978Z,98838.15
2019-01-23T15:56:56.046Z,98847.67
2019-01-23T16:02:24.123Z,98850.20
2019-01-23T16:07:21.419Z,98853.72
2019-01-23T16:12:23.432Z,98857.66
2019-01-23T16:17:25.442Z,98871.75
2019-01-23T16:27:37.869Z,98884.21
2019-01-23T16:32:39.916Z,98881.44
2019-01-23T16:38:03.839Z,98890.97
2019-01-23T16:43:05.867Z,98884.39
2019-01-23T16:48:07.908Z,98890.91
2019-01-23T16:53:09.958Z,98890.01
2019-01-23T16:58:12.122Z,98894.32
2019-01-23T17:03:14.202Z,98906.17
2019-01-23T17:08:16.251Z,98915.03
2019-01-23T17:13:18.263Z,98918.37
2019-01-23T17:18:20.412Z,98915.77
2019-01-23T17:23:22.486Z,98917.98
2019-01-23T17:28:24.590Z,98936.52
2019-01-23T17:33:27.005Z,98937.94
2019-01-23T17:38:29.061Z,98943.50
2019-01-23T17:48:45.662Z,98947.54
2019-01-23T17:53:47.698Z,98954.49
2019-01-23T17:58:49.694Z,98962.09
2019-01-23T18:03:51.928Z,98976.97
2019-01-23T18:08:53.958Z,98974.06
2019-01-23T18:13:55.986Z,98982.24
2019-01-23T18:18:57.992Z,98981.73
2019-01-23T18:24:00.072Z,98993.41
2019-01-23T18:29:02.124Z,99000.67
2019-01-23T18:34:28.292Z,99007.43
2019-01-23T18:40:00.810Z,99007.43
2019-01-23T18:45:25.057Z,99016.16
2019-01-23T18:51:06.016Z,99022.33
2019-01-23T18:56:08.072Z,99026.59
2019-01-23T19:01:10.117Z,99030.11
2019-01-23T19:06:12.372Z,99030.56
2019-01-23T19:11:14.421Z,99038.10
2019-01-23T19:16:16.554Z,99041.91
2019-01-23T19:21:18.617Z,99047.59
2019-01-23T19:26:20.976Z,99046.62
2019-01-23T19:31:23.059Z,99041.91
2019-01-23T19:36:25.168Z,99044.17
2019-01-23T19:41:27.331Z,99053.66
2019-01-23T19:46:29.349Z,99055.47
2019-01-23T19:51:31.574Z,99048.89
2019-01-23T19:56:33.674Z,99060.28
2019-01-23T20:01:35.692Z,99057.22
2019-01-23T20:06:37.715Z,99069.97
2019-01-23T20:11:39.823Z,99082.34
2019-01-23T20:16:41.833Z,99088.19
2019-01-23T20:21:43.862Z,99087.73
2019-01-23T20:26:45.909Z,99090.41
2019-01-23T20:31:47.969Z,99093.45
2019-01-23T20:36:49.970Z,99097.88
2019-01-23T20:41:52.031Z,99105.30
2019-01-23T20:46:54.066Z,99104.45
2019-01-23T20:51:56.402Z,99113.53
2019-01-23T20:56:58.445Z,99118.30
2019-01-23T21:02:00.468Z,99126.88
2019-01-23T21:07:02.667Z,99128.28
2019-01-23T21:12:08.720Z,99130.94
2019-01-23T21:17:10.758Z,99130.89
2019-01-23T21:22:12.805Z,99125.06
2019-01-23T21:27:14.865Z,99130.94
2019-01-23T21:32:16.888Z,99137.41
2019-01-23T21:42:27.152Z,99139.42
2019-01-23T21:47:29.201Z,99146.25
2019-01-23T21:52:31.304Z,99158.54
2019-01-23T21:57:33.308Z,99161.94
2019-01-23T22:02:35.368Z,99165.30
2019-01-23T22:07:37.425Z,99172.73
2019-01-23T22:12:39.498Z,99174.39
2019-01-23T22:17:41.563Z,99172.28
2019-01-23T22:22:44.021Z,99180.91
2019-01-23T22:27:46.025Z,99191.80
2019-01-23T22:32:48.099Z,99196.72
2019-01-23T22:37:50.098Z,99192.30
2019-01-23T22:42:52.082Z,99211.52
2019-01-23T22:47:54.090Z,99209.26
2019-01-23T22:52:56.068Z,99215.78
2019-01-23T22:57:58.119Z,99216.67
2019-01-23T23:03:00.304Z,99220.73
2019-01-23T23:08:02.334Z,99220.20
2019-01-23T23:13:04.624Z,99224.78
2019-01-23T23:18:06.726Z,99238.45
2019-01-23T23:23:08.747Z,99244.57
2019-01-23T23:28:10.739Z,99252.80
2019-01-23T23:33:12.990Z,99259.81
2019-01-23T23:38:15.002Z,99265.97
2019-01-23T23:43:17.095Z,99277.22
2019-01-23T23:48:19.134Z,99274.97
2019-01-23T23:53:21.288Z,99284.95
2019-01-23T23:58:23.374Z,99280.91
